Linden, NJ

12:40 AM EDT on October 23, 2014 (GMT -0400)
(Church St. near Rahway River) | Change Station
CLOSE
Current Station
Personal Weather Station
Location: Rahway, NJ
Elevation: 20 ft
Nearby Weather Stations

Elev 20 ft 40.61 °N, 74.28 °W | Updated 4 seconds ago

Light Drizzle
Light Drizzle
50.5 °F
Feels Like 50.5 °F
N
0.0
Wind Variable Wind from WNW
Gusts 16.0 mph

Today
High -- | Low -- °F
--% Chance of Precip.
Yesterday
High -- | Low -- °F
Precip. -- in
7:16 AM 6:05 PM
Waning Crescent, 1% visible
Pressure 29.75 in
Visibility 10.0 miles
Clouds Scattered Clouds 2100 ft
Mostly Cloudy 2700 ft
Overcast 3200 ft
Dew Point 49 °F
Humidity 93%
Rainfall 0.00 in
Snow Depth Not available.
UV 0 out of 12
Pollen .30 out of 12
Air Quality Not available.
Flu Activity Sporadic
METAR KLDJ 230435Z AUTO 36013G18KT 10SM -DZ SCT021 BKN027 OVC032 13/11 A2975 RMK AO2 T01300105

More Conditions Fewer Conditions

Pressure 29.75 in
Visibility 10.0 miles
Clouds Scattered Clouds 2100 ft
Mostly Cloudy 2700 ft
Overcast 3200 ft
Dew Point 49 °F
Humidity 93%
Rainfall 0.00 in
Snow Depth Not available.
UV 0 out of 12
Pollen .30 out of 12
Air Quality Not available.
Flu Activity Sporadic
METAR KLDJ 230435Z AUTO 36013G18KT 10SM -DZ SCT021 BKN027 OVC032 13/11 A2975 RMK AO2 T01300105

More Conditions Fewer Conditions

10-Day Weather Forecast

Almanac

Astronomy

Oct. 23, 2014 Rise Set
Actual Time 7:16 AM EDT 6:05 PM EDT
Civil Twilight 6:48 AM EDT 6:33 PM EDT
Nautical Twilight 6:17 AM EDT 7:04 PM EDT
Astronomical Twilight 5:45 AM EDT 7:36 PM EDT
Moon 6:53 AM EDT 6:05 PM EDT
Length of Visible Light 11h 44m
Length of Day
10h 48m
Tomorrow will be 2m 31s shorter.
Waning Crescent, 1% of the Moon is Illuminated
Today
Waning Crescent
Oct 23
New
Oct 30
First Quarter
Nov 6
Full
Nov 14
Last Quarter

Today's Extremes

State Highs State Lows

Community

WunderPhotos

Upload Photos

1,764,154 photos uploaded!

Nearby

Snow Depth

Station Depth Elevation
No new snow has been reported.

Earthquake Activity

City Distance Mag. Time & Date
No recent earthquake activity has been reported nearby.
Minimum magnitude displayed is 2.5.

Coastal Water Temperatures

Place Temperature
Sandy Hook, NJ 60.1 °F
The Battery, NY 62.1 °F
Bergen Point West Reach, NJ 62.1 °F
Kings Point, NY 60.1 °F

Nearby Weather Stations